createdAt,value
2019-04-04T00:02:37.225Z,68.92
2019-04-04T00:08:00.095Z,69.33
2019-04-04T00:13:24.700Z,69.73
2019-04-04T00:18:47.865Z,70.19
2019-04-04T00:24:10.229Z,70.79
2019-04-04T00:29:32.218Z,71.34
2019-04-04T00:34:53.748Z,71.37
2019-04-04T00:40:17.429Z,71.77
2019-04-04T00:45:38.519Z,71.81
2019-04-04T00:51:00.691Z,72.40
2019-04-04T00:56:21.970Z,72.80
2019-04-04T01:01:44.520Z,72.48
2019-04-04T01:07:06.172Z,72.54
2019-04-04T01:12:32.282Z,72.89
2019-04-04T01:17:53.531Z,73.00
2019-04-04T01:23:15.405Z,73.05
2019-04-04T01:28:37.097Z,72.93
2019-04-04T01:34:01.332Z,72.81
2019-04-04T01:39:22.977Z,73.04
2019-04-04T01:44:44.499Z,73.34
2019-04-04T01:50:07.547Z,73.22
2019-04-04T01:55:29.398Z,73.15
2019-04-04T02:00:52.211Z,73.38
2019-04-04T02:06:13.701Z,73.46
2019-04-04T02:11:37.450Z,73.16
2019-04-04T02:16:59.077Z,73.69
2019-04-04T02:22:23.514Z,73.57
2019-04-04T02:27:45.279Z,73.07
2019-04-04T02:33:09.059Z,73.42
2019-04-04T02:38:30.808Z,73.36
2019-04-04T02:43:52.416Z,72.86
2019-04-04T02:49:13.656Z,73.19
2019-04-04T02:54:35.194Z,73.37
2019-04-04T02:59:56.988Z,73.30
2019-04-04T03:05:19.986Z,72.87
2019-04-04T03:10:42.788Z,73.14
2019-04-04T03:16:06.784Z,73.50
2019-04-04T03:21:28.559Z,72.99
2019-04-04T03:26:52.772Z,72.82
2019-04-04T03:32:16.247Z,73.17
2019-04-04T03:37:40.539Z,73.58
2019-04-04T03:43:01.178Z,73.14
2019-04-04T03:48:23.014Z,72.92
2019-04-04T03:53:51.608Z,73.36
2019-04-04T03:59:14.681Z,73.42
2019-04-04T04:04:36.242Z,73.25
2019-04-04T04:09:59.718Z,73.63
2019-04-04T04:15:21.576Z,73.46
2019-04-04T04:20:47.032Z,73.25
2019-04-04T04:26:09.578Z,72.95
2019-04-04T04:31:32.053Z,72.52
2019-04-04T04:36:53.871Z,72.41
2019-04-04T04:42:15.458Z,71.54
2019-04-04T04:47:37.095Z,70.89
2019-04-04T04:53:00.779Z,70.70
2019-04-04T04:58:22.958Z,70.10
2019-04-04T05:03:44.188Z,69.94
2019-04-04T05:09:06.494Z,69.79
2019-04-04T05:14:29.778Z,69.15
2019-04-04T05:19:51.560Z,68.48
2019-04-04T05:25:14.320Z,68.02
2019-04-04T05:30:35.889Z,67.76
2019-04-04T05:35:58.283Z,66.82
2019-04-04T05:41:20.927Z,66.24
2019-04-04T05:46:42.774Z,65.05
2019-04-04T05:52:04.263Z,64.04
2019-04-04T05:57:26.009Z,63.15
2019-04-04T06:02:48.519Z,61.74
2019-04-04T06:08:10.136Z,60.84
2019-04-04T06:13:31.512Z,59.63
2019-04-04T06:18:56.401Z,58.16
2019-04-04T06:24:17.973Z,56.95
2019-04-04T06:29:39.928Z,54.54
2019-04-04T06:35:01.471Z,54.12
2019-04-04T06:40:28.125Z,53.72
2019-04-04T06:45:51.661Z,53.21
2019-04-04T06:51:14.352Z,52.87
2019-04-04T06:56:36.975Z,52.89
2019-04-04T07:01:58.659Z,51.23
2019-04-04T07:07:20.843Z,51.31
2019-04-04T07:12:42.988Z,51.86
2019-04-04T07:18:04.305Z,50.93
2019-04-04T07:23:28.523Z,50.04
2019-04-04T07:28:53.925Z,49.67
2019-04-04T07:34:15.655Z,53.12
2019-04-04T07:39:37.427Z,49.98
2019-04-04T07:44:58.887Z,49.27
2019-04-04T07:50:20.496Z,48.21
2019-04-04T07:55:42.271Z,47.07
2019-04-04T08:01:05.695Z,47.84
2019-04-04T08:06:27.603Z,47.70
2019-04-04T08:11:50.145Z,46.96
2019-04-04T08:17:11.949Z,46.68
2019-04-04T08:22:33.491Z,46.56
2019-04-04T08:27:54.743Z,45.54
2019-04-04T08:33:16.719Z,46.04
2019-04-04T08:38:39.289Z,45.10
2019-04-04T08:44:01.526Z,44.69
2019-04-04T08:49:24.016Z,44.31
2019-04-04T08:54:45.512Z,45.50
2019-04-04T09:00:09.868Z,45.40
2019-04-04T09:05:31.758Z,45.54
2019-04-04T09:10:53.434Z,43.69
2019-04-04T09:16:15.345Z,45.02
2019-04-04T09:21:37.353Z,43.81
2019-04-04T09:26:59.149Z,43.54
2019-04-04T09:32:20.889Z,44.20
2019-04-04T09:37:42.997Z,42.87
2019-04-04T09:43:04.994Z,42.39
2019-04-04T09:48:26.639Z,41.71
2019-04-04T09:53:53.181Z,40.47
2019-04-04T09:59:13.708Z,40.56
2019-04-04T10:04:36.420Z,42.08
2019-04-04T10:09:58.646Z,41.74
2019-04-04T10:15:20.200Z,43.07
2019-04-04T10:20:42.062Z,41.38
2019-04-04T10:26:03.833Z,41.94
2019-04-04T10:31:25.934Z,41.02
2019-04-04T10:36:47.596Z,40.40
2019-04-04T10:42:09.284Z,40.10
2019-04-04T10:47:30.658Z,40.17
2019-04-04T10:52:52.870Z,40.70
2019-04-04T10:58:15.687Z,40.98
2019-04-04T11:03:37.529Z,40.23
2019-04-04T11:08:59.014Z,39.75
2019-04-04T11:14:20.536Z,39.52
2019-04-04T11:19:43.549Z,38.93
2019-04-04T11:25:05.971Z,39.31
2019-04-04T11:30:27.727Z,39.50
2019-04-04T11:35:49.958Z,37.96
2019-04-04T11:41:11.915Z,37.56
2019-04-04T11:46:33.404Z,37.07
2019-04-04T11:51:55.335Z,37.11
2019-04-04T11:57:16.646Z,37.92
2019-04-04T12:02:39.874Z,37.30
2019-04-04T12:08:01.781Z,36.77
2019-04-04T12:13:23.426Z,36.90
2019-04-04T12:18:44.961Z,36.98
2019-04-04T12:24:06.719Z,36.61
2019-04-04T12:29:28.837Z,36.91
2019-04-04T12:34:51.010Z,37.68
2019-04-04T12:40:20.392Z,37.89
2019-04-04T12:45:36.846Z,37.68
2019-04-04T12:51:01.187Z,38.32
2019-04-04T12:56:22.499Z,38.04
2019-04-04T13:01:44.249Z,37.95
2019-04-04T13:07:05.685Z,38.20
2019-04-04T13:12:27.652Z,38.97
2019-04-04T13:17:49.603Z,39.44
2019-04-04T13:23:14.546Z,40.62
2019-04-04T13:28:36.148Z,40.42
2019-04-04T13:33:59.168Z,40.79
2019-04-04T13:39:22.080Z,39.89
2019-04-04T13:44:45.004Z,40.18
2019-04-04T13:50:08.733Z,40.33
2019-04-04T13:55:31.019Z,40.18
2019-04-04T14:00:53.352Z,40.67
2019-04-04T14:06:14.888Z,40.13
2019-04-04T14:11:40.908Z,39.30
2019-04-04T14:17:01.401Z,39.59
2019-04-04T14:22:23.445Z,39.71
2019-04-04T14:27:46.823Z,39.48
2019-04-04T14:33:08.678Z,39.86
2019-04-04T14:38:31.296Z,39.88
2019-04-04T14:43:53.987Z,40.01
2019-04-04T14:49:18.514Z,39.86
2019-04-04T14:54:40.367Z,41.56
2019-04-04T15:00:04.208Z,42.49
2019-04-04T15:05:26.192Z,42.82
2019-04-04T15:10:49.177Z,43.26
2019-04-04T15:16:16.184Z,44.14
2019-04-04T15:21:40.959Z,44.21
2019-04-04T15:27:03.032Z,43.75
2019-04-04T15:32:27.299Z,44.88
2019-04-04T15:37:51.499Z,46.21
2019-04-04T15:43:13.434Z,47.17
2019-04-04T15:48:35.430Z,47.94
2019-04-04T15:53:57.953Z,49.47
2019-04-04T15:59:20.163Z,51.35
2019-04-04T16:04:43.053Z,52.93
2019-04-04T16:10:05.223Z,54.50
2019-04-04T16:15:27.718Z,55.29
2019-04-04T16:20:51.666Z,55.70
2019-04-04T16:26:14.178Z,56.22
2019-04-04T16:31:36.475Z,56.85
2019-04-04T16:36:59.543Z,57.02
2019-04-04T16:42:21.869Z,58.43
2019-04-04T16:47:45.216Z,58.57
2019-04-04T16:53:08.041Z,58.51
2019-04-04T16:58:30.162Z,59.45
2019-04-04T17:04:01.568Z,59.92
2019-04-04T17:09:16.848Z,60.39
2019-04-04T17:14:39.808Z,61.34
2019-04-04T17:20:03.099Z,62.07
2019-04-04T17:25:26.192Z,62.79
2019-04-04T17:30:49.592Z,62.92
2019-04-04T17:36:11.904Z,63.76
2019-04-04T17:41:33.745Z,64.05
2019-04-04T17:46:56.308Z,64.53
2019-04-04T17:52:18.425Z,64.85
2019-04-04T17:57:40.197Z,64.71
2019-04-04T18:03:02.972Z,64.80
2019-04-04T18:08:26.161Z,65.32
2019-04-04T18:13:49.600Z,65.02
2019-04-04T18:19:12.058Z,65.35
2019-04-04T18:24:35.512Z,65.34
2019-04-04T18:29:58.463Z,65.62
2019-04-04T18:35:19.861Z,65.52
2019-04-04T18:40:43.810Z,65.78
2019-04-04T18:46:05.974Z,65.94
2019-04-04T18:51:28.996Z,66.13
2019-04-04T18:56:51.117Z,65.74
2019-04-04T19:02:14.984Z,66.60
2019-04-04T19:07:39.448Z,67.29
2019-04-04T19:13:05.534Z,68.00
2019-04-04T19:18:30.473Z,67.90
2019-04-04T19:23:52.984Z,68.45
2019-04-04T19:29:15.712Z,68.63
2019-04-04T19:34:37.287Z,69.82
2019-04-04T19:40:00.199Z,69.58
2019-04-04T19:45:21.624Z,69.69
2019-04-04T19:50:46.044Z,70.22
2019-04-04T19:56:08.891Z,71.31
2019-04-04T20:01:32.298Z,71.74
2019-04-04T20:06:54.466Z,71.08
2019-04-04T20:12:15.885Z,71.79
2019-04-04T20:17:37.738Z,71.90
2019-04-04T20:22:59.342Z,71.89
2019-04-04T20:28:23.518Z,72.12
2019-04-04T20:33:45.339Z,72.52
2019-04-04T20:39:07.264Z,72.67
2019-04-04T20:44:29.771Z,72.75
2019-04-04T20:49:52.216Z,73.30
2019-04-04T20:55:14.209Z,73.40
2019-04-04T21:00:37.069Z,73.65
2019-04-04T21:05:58.707Z,73.90
2019-04-04T21:11:20.623Z,73.43
2019-04-04T21:16:43.858Z,73.44
2019-04-04T21:22:06.775Z,73.69
2019-04-04T21:27:28.289Z,73.91
2019-04-04T21:32:50.308Z,73.95
2019-04-04T21:38:12.209Z,75.10
2019-04-04T21:43:34.471Z,74.90
2019-04-04T21:48:56.471Z,74.75
2019-04-04T21:54:18.290Z,74.49
2019-04-04T21:59:40.922Z,74.96
2019-04-04T22:05:02.801Z,74.63
2019-04-04T22:10:33.133Z,74.59
2019-04-04T22:15:57.553Z,74.33
2019-04-04T22:21:23.272Z,74.79
2019-04-04T22:27:05.976Z,74.47
2019-04-04T22:32:29.553Z,74.52
2019-04-04T22:37:52.482Z,74.33
2019-04-04T22:43:17.929Z,74.45
2019-04-04T22:48:39.674Z,74.54
2019-04-04T22:54:05.042Z,75.30
2019-04-04T22:59:36.091Z,74.82
2019-04-04T23:04:58.590Z,75.22
2019-04-04T23:10:23.444Z,75.19
2019-04-04T23:15:47.039Z,74.97
2019-04-04T23:21:11.700Z,75.85
2019-04-04T23:26:35.989Z,75.59
2019-04-04T23:32:00.349Z,75.73
2019-04-04T23:37:22.533Z,75.18
2019-04-04T23:42:46.126Z,75.46
2019-04-04T23:48:12.825Z,75.55
2019-04-04T23:53:35.810Z,76.03
2019-04-04T23:58:57.608Z,76.17
